Time;durP1;ratioP1;P1;durP2;ratioP2;P2;SDS_P1;SDS_P2;PMS_P1;PMS_P2;Temp;Humidity;BMP_temperature;BMP_pressure;BME280_temperature;BME280_humidity;BME280_pressure;Samples;Min_cycle;Max_cycle;Signal;HPM_P1;HPM_P2
2023/06/18 00:00:43;;;;;;;26.10;18.10;;;;;;;;;;4955444;28;20045;-71
2023/06/18 00:03:09;;;;;;;26.02;18.85;;;;;;;;;;4945191;28;20507;-71
2023/06/18 00:05:35;;;;;;;26.55;19.92;;;;;;;;;;4958246;28;20374;-71
2023/06/18 00:08:01;;;;;;;24.92;18.85;;;;;;;;;;4961769;28;20045;-69
2023/06/18 00:10:27;;;;;;;24.80;19.70;;;;;;;;;;4936162;29;20066;-70
2023/06/18 00:12:53;;;;;;;30.30;20.30;;;;;;;;;;4952947;28;20031;-70
2023/06/18 00:15:19;;;;;;;26.40;19.75;;;;;;;;;;4920726;29;20520;-70
2023/06/18 00:17:46;;;;;;;25.95;20.27;;;;;;;;;;4937082;29;20078;-70
2023/06/18 00:20:12;;;;;;;26.73;20.88;;;;;;;;;;4923508;28;20051;-70
2023/06/18 00:22:38;;;;;;;23.55;19.50;;;;;;;;;;4939434;29;20122;-70
2023/06/18 00:25:07;;;;;;;28.90;21.55;;;;;;;;;;4938149;29;20126;-70
2023/06/18 00:27:33;;;;;;;25.50;19.23;;;;;;;;;;4926983;29;20043;-70
2023/06/18 00:30:00;;;;;;;30.25;22.10;;;;;;;;;;5001488;23;20097;-59
2023/06/18 00:32:28;;;;;;;27.77;21.98;;;;;;;;;;4930837;29;20148;-59
2023/06/18 00:34:54;;;;;;;31.42;23.02;;;;;;;;;;4950584;28;20474;-58
2023/06/18 00:37:20;;;;;;;29.33;23.02;;;;;;;;;;4946450;29;20121;-58
2023/06/18 00:39:46;;;;;;;30.70;22.85;;;;;;;;;;4934039;29;20127;-58
2023/06/18 00:42:13;;;;;;;30.85;23.17;;;;;;;;;;4952906;28;20590;-58
2023/06/18 00:44:40;;;;;;;29.88;22.20;;;;;;;;;;4954208;28;20486;-59
2023/06/18 00:47:06;;;;;;;27.27;21.45;;;;;;;;;;4954327;28;20043;-59
2023/06/18 00:49:33;;;;;;;30.73;23.80;;;;;;;;;;4953987;28;20039;-58
2023/06/18 00:52:00;;;;;;;31.23;22.48;;;;;;;;;;4936710;29;20046;-58
2023/06/18 00:54:28;;;;;;;25.75;20.15;;;;;;;;;;4953822;28;20462;-58
2023/06/18 00:56:55;;;;;;;29.33;22.20;;;;;;;;;;4953618;28;20074;-59
2023/06/18 00:59:22;;;;;;;26.45;20.13;;;;;;;;;;4949296;28;20077;-58
2023/06/18 01:01:58;;;;;;;27.58;21.20;;;;;;;;;;4953858;28;20039;-58
2023/06/18 01:04:26;;;;;;;30.27;22.33;;;;;;;;;;4963724;23;20085;-58
2023/06/18 01:06:53;;;;;;;26.92;20.70;;;;;;;;;;4970490;28;20066;-57
2023/06/18 01:09:21;;;;;;;26.45;21.25;;;;;;;;;;4972823;28;20074;-58
2023/06/18 01:11:48;;;;;;;27.50;20.33;;;;;;;;;;4966301;28;20035;-55
2023/06/18 01:14:14;;;;;;;30.27;22.25;;;;;;;;;;4966671;28;20075;-57
2023/06/18 01:16:46;;;;;;;28.80;22.10;;;;;;;;;;4970756;28;20039;-57
2023/06/18 01:19:27;;;;;;;29.65;22.20;;;;;;;;;;4954188;28;20050;-56
2023/06/18 01:21:56;;;;;;;29.25;21.75;;;;;;;;;;4968167;28;20045;-57
2023/06/18 01:24:27;;;;;;;29.38;22.10;;;;;;;;;;4937863;28;20046;-57
2023/06/18 01:26:57;;;;;;;33.03;22.45;;;;;;;;;;4937921;28;20046;-57
2023/06/18 01:29:26;;;;;;;31.13;22.13;;;;;;;;;;4971604;28;20043;-58
2023/06/18 01:31:53;;;;;;;28.77;20.83;;;;;;;;;;4951321;28;20075;-59
2023/06/18 01:34:20;;;;;;;32.40;23.63;;;;;;;;;;4953277;28;20035;-58
2023/06/18 01:39:23;;;;;;;33.05;24.08;;;;;;;;;;4985372;23;20051;-57
2023/06/18 01:41:51;;;;;;;31.38;21.85;;;;;;;;;;4966646;28;20070;-55
2023/06/18 01:44:19;;;;;;;31.35;24.92;;;;;;;;;;4963832;28;20043;-55
2023/06/18 01:46:45;;;;;;;29.67;22.00;;;;;;;;;;4963784;28;20535;-57
2023/06/18 01:49:12;;;;;;;30.30;23.08;;;;;;;;;;4965292;28;20580;-54
2023/06/18 01:51:39;;;;;;;33.60;23.33;;;;;;;;;;4958120;28;20125;-55
2023/06/18 01:54:06;;;;;;;33.35;22.65;;;;;;;;;;4959413;28;20560;-56
2023/06/18 01:56:33;;;;;;;29.23;22.15;;;;;;;;;;4966823;28;20389;-56
2023/06/18 01:58:59;;;;;;;32.50;23.73;;;;;;;;;;4953830;28;20145;-56
2023/06/18 02:01:26;;;;;;;31.35;23.05;;;;;;;;;;4962167;28;20065;-55
2023/06/18 02:03:52;;;;;;;32.85;23.10;;;;;;;;;;4963179;28;20042;-57
2023/06/18 02:06:18;;;;;;;33.25;23.67;;;;;;;;;;4963406;28;20151;-57
2023/06/18 02:08:44;;;;;;;40.20;26.33;;;;;;;;;;4973342;23;20058;-61
2023/06/18 02:11:10;;;;;;;33.50;23.42;;;;;;;;;;4947598;23;20054;-56
2023/06/18 02:13:36;;;;;;;34.03;23.23;;;;;;;;;;4943013;28;20135;-56
2023/06/18 02:16:02;;;;;;;33.75;23.10;;;;;;;;;;4949230;28;20053;-57
2023/06/18 02:18:28;;;;;;;33.80;23.92;;;;;;;;;;4926217;29;20054;-56
2023/06/18 02:20:54;;;;;;;31.80;23.20;;;;;;;;;;4951503;28;20042;-56
2023/06/18 02:23:20;;;;;;;35.50;24.40;;;;;;;;;;4934077;29;20063;-56
2023/06/18 02:25:46;;;;;;;34.67;22.88;;;;;;;;;;4933536;29;20070;-55
2023/06/18 02:28:12;;;;;;;31.80;23.88;;;;;;;;;;4951424;28;20118;-56
2023/06/18 02:30:38;;;;;;;36.83;26.05;;;;;;;;;;4951815;28;20118;-56
2023/06/18 02:33:10;;;;;;;34.03;24.13;;;;;;;;;;4950753;28;20122;-56
2023/06/18 02:35:36;;;;;;;32.72;22.95;;;;;;;;;;4951208;28;20043;-56
2023/06/18 02:38:02;;;;;;;32.92;24.25;;;;;;;;;;4933498;28;20097;-55
2023/06/18 02:40:28;;;;;;;37.67;26.55;;;;;;;;;;5007967;23;20063;-68
2023/06/18 02:42:56;;;;;;;35.60;23.75;;;;;;;;;;4963905;23;20039;-57
2023/06/18 02:45:24;;;;;;;38.55;25.45;;;;;;;;;;4958335;28;20046;-58
2023/06/18 02:47:50;;;;;;;36.00;24.33;;;;;;;;;;4968142;28;20464;-58
2023/06/18 02:50:17;;;;;;;33.80;22.75;;;;;;;;;;4969431;28;20512;-57
2023/06/18 02:52:44;;;;;;;32.15;23.92;;;;;;;;;;4958115;28;20497;-57
2023/06/18 02:55:11;;;;;;;32.38;23.38;;;;;;;;;;4963250;28;20327;-58
2023/06/18 02:57:38;;;;;;;36.90;25.35;;;;;;;;;;4960715;28;20039;-57
2023/06/18 03:00:05;;;;;;;35.03;25.35;;;;;;;;;;4968286;28;20039;-58
2023/06/18 03:02:31;;;;;;;32.25;23.80;;;;;;;;;;4958996;28;20038;-58
2023/06/18 03:04:58;;;;;;;35.50;24.23;;;;;;;;;;4961152;28;20035;-58
2023/06/18 03:07:24;;;;;;;36.65;26.05;;;;;;;;;;4958364;28;20039;-57
2023/06/18 03:09:50;;;;;;;34.85;24.83;;;;;;;;;;4964946;28;20524;-58
2023/06/18 03:14:47;;;;;;;32.42;23.20;;;;;;;;;;5024181;23;20105;-62
2023/06/18 03:17:13;;;;;;;36.88;26.95;;;;;;;;;;4971145;28;20468;-63
2023/06/18 03:19:39;;;;;;;38.28;26.67;;;;;;;;;;4963433;28;20393;-63
2023/06/18 03:22:06;;;;;;;37.72;25.55;;;;;;;;;;4963814;28;20047;-62
2023/06/18 03:24:32;;;;;;;31.20;22.85;;;;;;;;;;4953279;29;20043;-62
2023/06/18 03:26:59;;;;;;;34.40;23.45;;;;;;;;;;4951476;29;20102;-61
2023/06/18 03:29:25;;;;;;;36.17;24.50;;;;;;;;;;4954884;29;20184;-61
2023/06/18 03:31:52;;;;;;;31.83;22.88;;;;;;;;;;4954499;29;20493;-61
2023/06/18 03:34:20;;;;;;;32.05;24.10;;;;;;;;;;4936875;29;20058;-62
2023/06/18 03:36:47;;;;;;;33.78;24.58;;;;;;;;;;4953953;29;20081;-62
2023/06/18 03:39:15;;;;;;;35.22;23.50;;;;;;;;;;4954197;29;20042;-62
2023/06/18 03:41:41;;;;;;;35.03;24.13;;;;;;;;;;4936292;29;20040;-62
2023/06/18 03:44:07;;;;;;;32.00;22.00;;;;;;;;;;4932569;23;20382;-54
2023/06/18 03:46:33;;;;;;;35.33;23.77;;;;;;;;;;4973762;28;20039;-53
2023/06/18 03:48:59;;;;;;;30.15;23.13;;;;;;;;;;4944809;28;20447;-56
2023/06/18 03:51:26;;;;;;;30.10;22.75;;;;;;;;;;4974854;28;20042;-56
2023/06/18 03:53:52;;;;;;;33.42;23.33;;;;;;;;;;4974796;28;20195;-56
2023/06/18 03:56:19;;;;;;;32.67;23.20;;;;;;;;;;4948024;28;20042;-56
2023/06/18 03:58:46;;;;;;;35.95;24.10;;;;;;;;;;4967982;28;20042;-55
2023/06/18 04:01:12;;;;;;;29.85;22.70;;;;;;;;;;4961658;28;20046;-57
2023/06/18 04:03:39;;;;;;;30.05;22.30;;;;;;;;;;4967156;28;20042;-56
2023/06/18 04:06:05;;;;;;;29.25;22.42;;;;;;;;;;4971155;28;20497;-56
2023/06/18 04:08:32;;;;;;;25.60;20.23;;;;;;;;;;4962986;28;20035;-56
2023/06/18 04:10:58;;;;;;;27.70;20.75;;;;;;;;;;4964657;28;20039;-58
2023/06/18 04:13:24;;;;;;;28.30;20.63;;;;;;;;;;4972773;28;20135;-56
2023/06/18 04:15:50;;;;;;;26.30;20.35;;;;;;;;;;4983407;23;20054;-58
2023/06/18 04:18:17;;;;;;;27.65;21.63;;;;;;;;;;4968192;28;20142;-59
2023/06/18 04:20:45;;;;;;;27.00;20.50;;;;;;;;;;4970930;28;20101;-55
2023/06/18 04:23:12;;;;;;;25.05;18.65;;;;;;;;;;4973774;28;20101;-57
2023/06/18 04:25:38;;;;;;;25.27;19.10;;;;;;;;;;4973895;28;20066;-57
2023/06/18 04:28:04;;;;;;;25.27;19.05;;;;;;;;;;4974021;28;20117;-58
2023/06/18 04:30:30;;;;;;;23.92;18.67;;;;;;;;;;4954898;28;20050;-58
2023/06/18 04:32:56;;;;;;;22.95;17.08;;;;;;;;;;4972562;28;20116;-57
2023/06/18 04:35:22;;;;;;;23.58;18.60;;;;;;;;;;4974124;28;20096;-58
2023/06/18 04:37:49;;;;;;;25.65;19.33;;;;;;;;;;4973961;28;20129;-58
2023/06/18 04:40:15;;;;;;;23.60;18.13;;;;;;;;;;4973667;28;20039;-57
2023/06/18 04:42:41;;;;;;;24.63;18.25;;;;;;;;;;4973325;28;20177;-58
2023/06/18 04:45:09;;;;;;;28.27;20.42;;;;;;;;;;4956434;28;20507;-56
2023/06/18 04:47:35;;;;;;;23.50;18.70;;;;;;;;;;4973010;28;20153;-57
2023/06/18 04:50:03;;;;;;;25.08;19.52;;;;;;;;;;4971191;28;20051;-57
2023/06/18 04:52:29;;;;;;;27.23;19.25;;;;;;;;;;4973307;28;20098;-58
2023/06/18 04:54:55;;;;;;;25.48;19.42;;;;;;;;;;4956409;28;20118;-57
2023/06/18 04:57:22;;;;;;;26.63;19.48;;;;;;;;;;4973311;28;20042;-58
2023/06/18 04:59:48;;;;;;;22.92;18.25;;;;;;;;;;4973702;28;20071;-57
2023/06/18 05:02:14;;;;;;;25.33;19.83;;;;;;;;;;4972687;28;20523;-57
2023/06/18 05:04:41;;;;;;;24.55;19.10;;;;;;;;;;5003197;23;20046;-69
2023/06/18 05:07:07;;;;;;;23.23;18.63;;;;;;;;;;4952848;28;20051;-68
2023/06/18 05:09:33;;;;;;;25.15;18.67;;;;;;;;;;4963548;28;20046;-69
2023/06/18 05:11:59;;;;;;;27.30;20.48;;;;;;;;;;4965961;28;20035;-69
2023/06/18 05:14:27;;;;;;;25.63;18.25;;;;;;;;;;4957887;28;20043;-69
2023/06/18 05:16:53;;;;;;;24.33;18.60;;;;;;;;;;4965447;28;20050;-69
2023/06/18 05:19:19;;;;;;;25.92;19.20;;;;;;;;;;4951551;28;20134;-69
2023/06/18 05:21:45;;;;;;;25.55;19.77;;;;;;;;;;4956014;28;20047;-69
2023/06/18 05:24:11;;;;;;;25.80;18.40;;;;;;;;;;4947201;28;20066;-69
2023/06/18 05:26:37;;;;;;;24.58;18.13;;;;;;;;;;4951787;28;20031;-69
2023/06/18 05:29:03;;;;;;;24.38;17.75;;;;;;;;;;4954652;29;20043;-69
2023/06/18 05:31:29;;;;;;;23.02;17.38;;;;;;;;;;4955862;28;20065;-69
2023/06/18 05:33:55;;;;;;;24.58;18.73;;;;;;;;;;4943693;29;20126;-69
2023/06/18 05:36:28;;;;;;;26.52;19.35;;;;;;;;;;4982611;23;20754;-82
2023/06/18 05:39:10;;;;;;;25.27;20.00;;;;;;;;;;4992824;23;20057;-57
2023/06/18 05:41:36;;;;;;;25.67;18.60;;;;;;;;;;4975473;28;20043;-58
2023/06/18 05:44:02;;;;;;;24.77;18.88;;;;;;;;;;4968757;28;20046;-56
2023/06/18 05:46:28;;;;;;;25.05;18.45;;;;;;;;;;4972645;28;20064;-56
2023/06/18 05:48:54;;;;;;;24.50;19.05;;;;;;;;;;4970589;28;20129;-57
2023/06/18 05:51:20;;;;;;;24.88;18.90;;;;;;;;;;4968729;28;20038;-57
2023/06/18 05:53:46;;;;;;;27.08;19.92;;;;;;;;;;4966417;28;20066;-55
2023/06/18 05:56:12;;;;;;;23.58;17.52;;;;;;;;;;4953589;28;20079;-57
2023/06/18 05:58:38;;;;;;;22.08;17.80;;;;;;;;;;4965271;28;20053;-54
2023/06/18 06:01:04;;;;;;;23.48;17.90;;;;;;;;;;4971199;28;20122;-56
2023/06/18 06:03:30;;;;;;;25.05;19.25;;;;;;;;;;4970829;28;20042;-57
2023/06/18 06:05:56;;;;;;;25.02;18.48;;;;;;;;;;4971085;28;20039;-57
2023/06/18 06:08:22;;;;;;;25.13;17.38;;;;;;;;;;4991482;23;20623;-57
2023/06/18 06:10:48;;;;;;;23.77;18.02;;;;;;;;;;4953453;29;20039;-56
2023/06/18 06:13:14;;;;;;;26.52;19.48;;;;;;;;;;4954127;28;20405;-57
2023/06/18 06:15:40;;;;;;;24.38;18.75;;;;;;;;;;4953070;29;20043;-58
2023/06/18 06:18:06;;;;;;;24.73;17.95;;;;;;;;;;4957844;28;20040;-57
2023/06/18 06:20:32;;;;;;;21.52;17.45;;;;;;;;;;4952244;29;20045;-57
2023/06/18 06:22:58;;;;;;;25.33;19.50;;;;;;;;;;4918566;29;20039;-55
2023/06/18 06:25:24;;;;;;;25.88;18.23;;;;;;;;;;4950803;29;20137;-56
2023/06/18 06:27:51;;;;;;;21.35;16.55;;;;;;;;;;4936882;29;20071;-57
2023/06/18 06:30:17;;;;;;;22.17;17.50;;;;;;;;;;4926988;28;20049;-58
2023/06/18 06:32:43;;;;;;;22.30;17.85;;;;;;;;;;4956924;28;20113;-57
2023/06/18 06:35:09;;;;;;;19.77;16.00;;;;;;;;;;4951362;28;20589;-57
2023/06/18 06:37:35;;;;;;;23.20;18.33;;;;;;;;;;4934357;29;20058;-57
2023/06/18 06:40:02;;;;;;;17.75;15.05;;;;;;;;;;4937472;28;20042;-57
2023/06/18 06:42:28;;;;;;;23.45;17.38;;;;;;;;;;5035179;23;20141;-59
2023/06/18 06:44:54;;;;;;;20.98;16.40;;;;;;;;;;4964307;28;20046;-59
2023/06/18 06:47:20;;;;;;;24.42;18.17;;;;;;;;;;4959318;28;20039;-58
2023/06/18 06:49:46;;;;;;;21.08;16.35;;;;;;;;;;4957714;28;20039;-59
2023/06/18 06:52:12;;;;;;;21.70;18.65;;;;;;;;;;4961792;28;20042;-58
2023/06/18 06:54:38;;;;;;;24.23;17.77;;;;;;;;;;4962449;28;20039;-59
2023/06/18 06:57:05;;;;;;;24.48;18.52;;;;;;;;;;4969457;28;20105;-59
2023/06/18 06:59:31;;;;;;;23.20;19.55;;;;;;;;;;4972123;28;20043;-59
2023/06/18 07:01:57;;;;;;;25.42;19.33;;;;;;;;;;4972185;28;20098;-59
2023/06/18 07:04:23;;;;;;;22.95;17.30;;;;;;;;;;4968256;28;20526;-56
2023/06/18 07:06:52;;;;;;;22.45;17.55;;;;;;;;;;4945371;28;20039;-58
2023/06/18 07:09:18;;;;;;;22.08;17.05;;;;;;;;;;4959529;28;20114;-59
2023/06/18 07:11:44;;;;;;;21.30;17.60;;;;;;;;;;4946444;28;20559;-59
2023/06/18 07:14:10;;;;;;;24.75;18.10;;;;;;;;;;4968046;28;20097;-59
2023/06/18 07:16:36;;;;;;;23.58;17.40;;;;;;;;;;4992030;23;20138;-72
2023/06/18 07:19:03;;;;;;;21.33;17.15;;;;;;;;;;4994501;23;20138;-70
2023/06/18 07:21:29;;;;;;;20.60;16.45;;;;;;;;;;4937881;29;20501;-70
2023/06/18 07:23:56;;;;;;;24.98;18.88;;;;;;;;;;4932460;29;20039;-70
2023/06/18 07:26:22;;;;;;;20.00;16.83;;;;;;;;;;4943571;29;20043;-71
2023/06/18 07:28:48;;;;;;;21.73;17.08;;;;;;;;;;4948442;29;20043;-71
2023/06/18 07:31:14;;;;;;;21.17;17.15;;;;;;;;;;4950163;28;20075;-71
2023/06/18 07:33:40;;;;;;;20.65;15.82;;;;;;;;;;4945488;29;20070;-68
2023/06/18 07:36:06;;;;;;;19.83;16.80;;;;;;;;;;4934829;29;20063;-69
2023/06/18 07:38:32;;;;;;;22.52;17.85;;;;;;;;;;4949548;28;20027;-68
2023/06/18 07:40:58;;;;;;;21.73;16.15;;;;;;;;;;4954562;28;20075;-69
2023/06/18 07:43:24;;;;;;;20.85;16.77;;;;;;;;;;5011856;23;20453;-72
2023/06/18 07:45:50;;;;;;;21.60;16.40;;;;;;;;;;4968933;28;20049;-72
2023/06/18 07:48:16;;;;;;;24.48;17.52;;;;;;;;;;4994839;23;20202;-62
2023/06/18 07:50:42;;;;;;;22.42;16.70;;;;;;;;;;5008173;23;20062;-55
2023/06/18 07:53:08;;;;;;;22.67;16.98;;;;;;;;;;4948363;28;20417;-55
2023/06/18 07:55:34;;;;;;;20.60;16.55;;;;;;;;;;4969590;28;20038;-55
2023/06/18 07:58:00;;;;;;;22.70;17.75;;;;;;;;;;4972719;28;20042;-55
2023/06/18 08:00:26;;;;;;;22.80;19.20;;;;;;;;;;4971414;28;20043;-54
2023/06/18 08:02:52;;;;;;;22.58;17.85;;;;;;;;;;4964909;28;20037;-55
2023/06/18 08:05:18;;;;;;;21.60;16.70;;;;;;;;;;4970276;28;20412;-55
2023/06/18 08:07:44;;;;;;;21.60;17.10;;;;;;;;;;4971813;28;20475;-55
2023/06/18 08:10:10;;;;;;;19.83;16.08;;;;;;;;;;4964461;28;20062;-53
2023/06/18 08:12:36;;;;;;;22.52;16.85;;;;;;;;;;4932970;29;20138;-55
2023/06/18 08:15:02;;;;;;;20.20;15.55;;;;;;;;;;4951106;28;20122;-56
2023/06/18 08:17:28;;;;;;;22.65;17.75;;;;;;;;;;4972007;28;20039;-54
2023/06/18 08:19:55;;;;;;;20.23;15.30;;;;;;;;;;4921078;23;1412767;-63
2023/06/18 08:22:21;;;;;;;21.80;16.45;;;;;;;;;;4995273;23;20058;-56
2023/06/18 08:24:47;;;;;;;20.80;16.92;;;;;;;;;;4923495;29;20143;-54
2023/06/18 08:27:15;;;;;;;21.45;15.88;;;;;;;;;;4933886;29;20114;-52
2023/06/18 08:29:44;;;;;;;17.70;14.25;;;;;;;;;;4918231;29;20175;-52
2023/06/18 08:32:13;;;;;;;21.73;16.65;;;;;;;;;;4933813;29;20242;-50
2023/06/18 08:34:42;;;;;;;20.55;15.45;;;;;;;;;;4933350;29;20118;-50
2023/06/18 08:39:39;;;;;;;17.65;14.30;;;;;;;;;;4990074;28;20196;-63
2023/06/18 08:42:05;;;;;;;20.63;14.95;;;;;;;;;;4973494;28;20453;-63
2023/06/18 08:44:34;;;;;;;20.52;14.13;;;;;;;;;;4936673;28;20125;-63
2023/06/18 08:47:03;;;;;;;20.15;15.43;;;;;;;;;;4954179;28;20045;-63
2023/06/18 08:49:30;;;;;;;20.33;15.15;;;;;;;;;;4958343;28;20539;-63
2023/06/18 08:54:28;;;;;;;18.70;14.77;;;;;;;;;;4965281;28;20043;-58
2023/06/18 08:57:00;;;;;;;18.98;14.65;;;;;;;;;;4973012;28;20075;-58
2023/06/18 08:59:31;;;;;;;16.92;12.63;;;;;;;;;;4953956;28;20142;-56
2023/06/18 09:02:00;;;;;;;17.65;13.60;;;;;;;;;;4956352;28;20056;-58
2023/06/18 09:04:29;;;;;;;16.80;12.95;;;;;;;;;;4951533;28;20524;-57
2023/06/18 09:06:56;;;;;;;15.15;12.93;;;;;;;;;;4958500;28;20078;-57
2023/06/18 09:09:22;;;;;;;16.55;12.27;;;;;;;;;;4956052;28;20050;-57
2023/06/18 09:11:48;;;;;;;14.95;11.80;;;;;;;;;;4965357;28;20042;-58
2023/06/18 09:14:21;;;;;;;13.35;10.57;;;;;;;;;;4970297;28;20038;-58
2023/06/18 09:16:54;;;;;;;16.38;11.68;;;;;;;;;;4963484;28;20053;-58
2023/06/18 09:19:21;;;;;;;14.70;11.73;;;;;;;;;;4960322;28;20043;-56
2023/06/18 09:21:50;;;;;;;13.38;9.70;;;;;;;;;;4953324;28;20121;-58
2023/06/18 09:24:20;;;;;;;13.07;9.18;;;;;;;;;;4952242;28;20147;-57
2023/06/18 09:26:47;;;;;;;12.73;9.68;;;;;;;;;;4967901;28;20027;-57
2023/06/18 09:29:17;;;;;;;12.98;9.43;;;;;;;;;;4945395;28;20058;-56
2023/06/18 09:31:46;;;;;;;16.00;9.90;;;;;;;;;;4948885;28;20053;-58
2023/06/18 09:34:13;;;;;;;12.30;9.50;;;;;;;;;;4933723;28;20058;-55
2023/06/18 09:36:42;;;;;;;16.70;9.50;;;;;;;;;;4965102;28;20425;-55
2023/06/18 09:39:25;;;;;;;12.27;8.90;;;;;;;;;;4938352;28;20047;-58
2023/06/18 09:41:52;;;;;;;12.02;9.02;;;;;;;;;;4947939;28;20042;-57
2023/06/18 09:44:20;;;;;;;12.50;8.07;;;;;;;;;;4969062;28;20053;-58
2023/06/18 09:46:47;;;;;;;10.48;7.70;;;;;;;;;;4969187;28;20066;-57
2023/06/18 09:49:18;;;;;;;11.52;7.88;;;;;;;;;;4966673;28;20520;-57
2023/06/18 09:51:45;;;;;;;10.88;8.45;;;;;;;;;;4969452;28;20035;-58
2023/06/18 09:54:12;;;;;;;12.50;9.18;;;;;;;;;;4946398;28;20054;-55
2023/06/18 09:56:38;;;;;;;11.00;8.20;;;27.20;99.90;;;;;;4966128;28;20142;-58
2023/06/18 09:59:05;;;;;;;11.38;8.05;;;;;;;;;;4967798;28;20053;-57
2023/06/18 10:01:46;;;;;;;12.27;8.82;;;;;;;;;;4966780;28;20038;-58
2023/06/18 10:04:13;;;;;;;12.75;8.85;;;;;;;;;;4935919;28;20049;-57
2023/06/18 10:06:40;;;;;;;12.32;9.20;;;;;;;;;;4968191;28;20401;-58
2023/06/18 10:09:08;;;;;;;10.32;8.10;;;;;;;;;;4935823;28;20078;-56
2023/06/18 10:11:36;;;;;;;10.90;8.40;;;;;;;;;;4962953;28;20308;-58
2023/06/18 10:14:08;;;;;;;10.77;8.77;;;;;;;;;;4969954;28;20043;-58
2023/06/18 10:16:35;;;;;;;12.68;8.68;;;28.20;99.90;;;;;;4969908;28;20505;-57
2023/06/18 10:19:12;;;;;;;11.40;8.35;;;28.20;99.90;;;;;;4969073;28;20053;-57
2023/06/18 10:21:44;;;;;;;10.48;8.63;;;28.50;99.90;;;;;;4952200;28;20050;-57
2023/06/18 10:24:24;;;;;;;11.18;8.52;;;28.50;99.90;;;;;;4966190;28;20042;-57
2023/06/18 10:26:50;;;;;;;13.45;9.00;;;28.80;99.90;;;;;;4969787;28;20035;-57
2023/06/18 10:29:16;;;;;;;9.88;7.88;;;28.90;99.90;;;;;;4968634;28;20101;-58
2023/06/18 10:31:43;;;;;;;10.43;6.80;;;;;;;;;;4940368;28;20035;-57
2023/06/18 10:34:10;;;;;;;12.68;7.95;;;29.00;84.00;;;;;;4958562;28;20456;-55
2023/06/18 10:36:37;;;;;;;9.95;7.32;;;29.00;82.20;;;;;;4952497;28;20117;-56
2023/06/18 10:39:03;;;;;;;10.25;7.25;;;29.30;79.20;;;;;;4952863;28;20138;-56
2023/06/18 10:41:29;;;;;;;11.93;7.55;;;29.00;67.40;;;;;;4965234;28;20133;-57
2023/06/18 10:43:55;;;;;;;10.48;8.55;;;29.30;63.30;;;;;;4960396;28;20122;-54
2023/06/18 10:46:21;;;;;;;8.45;6.43;;;29.40;57.50;;;;;;4947980;28;20047;-57
2023/06/18 10:49:07;;;;;;;10.23;7.55;;;;;;;;;;4965041;28;20074;-57
2023/06/18 10:51:32;;;;;;;9.68;7.22;;;29.60;49.50;;;;;;4966116;28;20039;-57
2023/06/18 10:54:24;;;;;;;12.27;7.40;;;29.50;48.70;;;;;;4960445;28;20035;-57
2023/06/18 10:56:58;;;;;;;10.60;7.93;;;;;;;;;;4945294;28;20037;-56
2023/06/18 10:59:43;;;;;;;9.60;6.93;;;29.90;32.90;;;;;;4963498;28;20039;-58
2023/06/18 11:02:11;;;;;;;9.45;7.15;;;30.10;50.70;;;;;;4959688;28;20502;-57
2023/06/18 11:04:37;;;;;;;9.65;6.95;;;29.90;45.20;;;;;;4931579;28;20382;-57
2023/06/18 11:07:19;;;;;;;10.20;7.07;;;30.10;25.90;;;;;;4965869;28;20046;-56
2023/06/18 11:09:58;;;;;;;10.50;7.53;;;29.90;27.00;;;;;;4967659;28;20401;-57
2023/06/18 11:12:28;;;;;;;11.63;7.35;;;30.30;1.00;;;;;;4963225;28;20043;-57
2023/06/18 11:15:15;;;;;;;10.50;7.40;;;;;;;;;;4960737;28;20038;-57
2023/06/18 11:17:42;;;;;;;11.02;7.70;;;30.10;15.30;;;;;;4962343;28;20043;-58
2023/06/18 11:20:12;;;;;;;11.48;7.55;;;30.00;12.90;;;;;;4940299;28;20043;-57
2023/06/18 11:22:40;;;;;;;9.35;6.65;;;30.50;1.00;;;;;;4940000;28;20493;-57
2023/06/18 11:25:08;;;;;;;9.23;6.32;;;30.30;8.10;;;;;;4965157;28;20047;-57
2023/06/18 11:27:34;;;;;;;10.30;7.07;;;30.70;12.60;;;;;;4946782;28;20388;-57
2023/06/18 11:30:00;;;;;;;9.18;6.75;;;30.30;2.00;;;;;;4965251;28;20236;-57
2023/06/18 11:32:28;;;;;;;9.07;6.80;;;30.90;6.70;;;;;;4936369;28;20138;-58
2023/06/18 11:34:54;;;;;;;7.68;6.25;;;30.90;1.00;;;;;;4936780;28;20042;-58
2023/06/18 11:37:20;;;;;;;9.77;7.30;;;31.10;1.00;;;;;;4945099;28;20097;-57
2023/06/18 11:39:47;;;;;;;9.48;6.50;;;31.30;1.00;;;;;;4955841;28;20452;-58
2023/06/18 11:42:19;;;;;;;8.52;6.55;;;30.80;1.00;;;;;;4965005;28;20326;-57
2023/06/18 11:44:53;;;;;;;8.32;6.40;;;31.20;1.00;;;;;;4957313;28;20039;-57
2023/06/18 11:47:19;;;;;;;10.13;6.30;;;31.20;1.00;;;;;;4969875;28;20400;-54
2023/06/18 11:49:46;;;;;;;8.18;6.13;;;31.40;1.00;;;;;;4951082;28;20059;-57
2023/06/18 11:52:17;;;;;;;9.88;6.70;;;31.50;1.00;;;;;;4964971;28;20448;-58
2023/06/18 11:54:43;;;;;;;8.80;6.35;;;31.30;1.00;;;;;;4964312;28;20493;-57
2023/06/18 11:57:10;;;;;;;8.38;6.72;;;31.80;1.00;;;;;;4947536;28;20113;-57
2023/06/18 11:59:36;;;;;;;9.35;6.47;;;32.00;1.00;;;;;;4969984;28;20070;-58
2023/06/18 12:02:12;;;;;;;8.95;6.45;;;31.90;1.00;;;;;;4943308;29;20493;-57
2023/06/18 12:04:43;;;;;;;11.65;6.32;;;31.80;1.00;;;;;;4953913;28;20114;-57
2023/06/18 12:07:10;;;;;;;10.77;6.15;;;32.10;1.00;;;;;;4961859;28;20086;-58
2023/06/18 12:09:36;;;;;;;8.35;6.15;;;32.10;1.00;;;;;;4967824;28;20035;-57
2023/06/18 12:12:27;;;;;;;10.07;6.57;;;32.60;1.00;;;;;;4966132;28;20082;-57
2023/06/18 12:15:00;;;;;;;8.02;6.30;;;32.60;1.00;;;;;;4966208;28;20097;-57
2023/06/18 12:17:49;;;;;;;8.60;6.22;;;32.40;1.00;;;;;;4964827;28;21045;-56
2023/06/18 12:20:15;;;;;;;9.38;7.00;;;32.80;1.00;;;;;;4954410;28;20465;-57
2023/06/18 12:22:41;;;;;;;9.82;6.72;;;33.20;1.00;;;;;;4961022;28;20485;-58
2023/06/18 12:25:08;;;;;;;8.00;5.43;;;33.10;1.00;;;;;;4958633;28;20035;-58
2023/06/18 12:27:34;;;;;;;7.68;5.53;;;33.20;1.00;;;;;;4969581;28;20042;-57
2023/06/18 12:30:02;;;;;;;8.52;5.75;;;33.50;1.00;;;;;;4963968;28;20041;-58
2023/06/18 12:32:28;;;;;;;8.77;6.05;;;33.70;1.00;;;;;;4968542;28;20187;-58
2023/06/18 12:34:55;;;;;;;7.25;5.38;;;33.70;1.00;;;;;;4965384;28;20141;-57
2023/06/18 12:37:32;;;;;;;8.38;4.97;;;34.10;1.00;;;;;;4972696;28;20089;-57
2023/06/18 12:40:10;;;;;;;7.65;5.20;;;34.30;1.00;;;;;;4964997;28;20481;-58
2023/06/18 12:42:36;;;;;;;7.07;5.20;;;34.90;1.00;;;;;;4948534;28;20493;-57
2023/06/18 12:45:02;;;;;;;7.80;5.25;;;34.90;1.00;;;;;;4946220;28;20216;-57
2023/06/18 12:47:30;;;;;;;9.02;5.53;;;34.80;1.00;;;;;;4940564;28;20042;-58
2023/06/18 12:49:56;;;;;;;8.77;5.60;;;34.80;1.00;;;;;;4944265;28;20038;-58
2023/06/18 12:52:26;;;;;;;9.40;5.55;;;34.90;1.00;;;;;;4950680;28;20039;-58
2023/06/18 12:54:51;;;;;;;8.90;5.47;;;35.00;1.00;;;;;;4945446;28;20057;-58
2023/06/18 12:57:17;;;;;;;9.25;5.93;;;34.80;1.00;;;;;;4955874;28;20140;-57
2023/06/18 12:59:52;;;;;;;7.90;5.50;;;34.60;1.00;;;;;;4941705;29;20046;-58
2023/06/18 13:02:19;;;;;;;9.48;5.15;;;34.50;1.00;;;;;;4965825;28;20500;-58
2023/06/18 13:04:45;;;;;;;6.82;4.70;;;33.80;1.00;;;;;;4944871;28;20408;-58
2023/06/18 13:07:12;;;;;;;6.55;4.80;;;33.90;1.00;;;;;;4935651;28;20122;-57
2023/06/18 13:09:39;;;;;;;10.07;5.63;;;34.20;1.00;;;;;;4947128;28;20102;-56
2023/06/18 13:12:05;;;;;;;7.75;5.32;;;34.50;1.00;;;;;;4968119;28;20117;-58
2023/06/18 13:14:31;;;;;;;7.22;5.30;;;34.70;1.00;;;;;;4944386;28;20050;-57
2023/06/18 13:17:01;;;;;;;6.78;4.93;;;34.50;1.00;;;;;;4957233;28;20035;-58
2023/06/18 13:19:30;;;;;;;10.05;5.47;;;34.30;1.00;;;;;;4959615;28;20118;-56
2023/06/18 13:21:56;;;;;;;8.40;5.50;;;34.70;1.00;;;;;;4953034;28;20047;-57
2023/06/18 13:24:22;;;;;;;12.05;5.85;;;35.00;1.00;;;;;;4930336;28;20074;-58
2023/06/18 13:26:48;;;;;;;7.70;5.10;;;35.70;1.00;;;;;;4953200;28;20035;-58
2023/06/18 13:29:14;;;;;;;8.98;6.63;;;36.50;1.00;;;;;;4960216;28;20054;-58
2023/06/18 13:31:39;;;;;;;7.97;5.53;;;37.30;1.00;;;;;;4967537;28;20062;-58
2023/06/18 13:34:05;;;;;;;8.00;5.22;;;37.90;1.00;;;;;;4963145;28;20038;-58
2023/06/18 13:36:31;;;;;;;8.05;5.18;;;38.10;1.00;;;;;;4963793;28;20086;-58
2023/06/18 13:38:57;;;;;;;7.40;5.45;;;38.30;1.00;;;;;;4945725;28;20046;-58
2023/06/18 13:41:23;;;;;;;8.30;5.72;;;38.80;1.00;;;;;;4949185;28;20047;-57
2023/06/18 13:43:49;;;;;;;33.58;9.10;;;38.50;96.00;;;;;;4951001;28;20038;-57
2023/06/18 13:46:15;;;;;;;23.27;7.68;;;39.00;96.80;;;;;;4942687;28;20051;-58
2023/06/18 13:48:41;;;;;;;9.50;5.38;;;40.10;98.80;;;;;;4970164;28;20047;-57
2023/06/18 13:51:07;;;;;;;8.15;5.55;;;38.80;99.90;;;;;;4962027;28;20047;-61
2023/06/18 13:53:33;;;;;;;8.30;5.57;;;38.60;97.60;;;;;;4937047;28;20045;-65
2023/06/18 13:55:59;;;;;;;7.95;5.25;;;38.20;99.10;;;;;;4941348;29;20119;-61
2023/06/18 13:58:25;;;;;;;8.43;5.72;;;38.30;99.90;;;;;;4967586;28;20042;-61
2023/06/18 14:00:50;;;;;;;8.60;5.40;;;38.80;96.10;;;;;;4962039;28;20047;-59
2023/06/18 14:03:16;;;;;;;7.22;5.57;;;38.70;96.30;;;;;;4967160;28;20050;-61
2023/06/18 14:05:42;;;;;;;8.18;5.72;;;38.70;95.30;;;;;;4968228;28;20384;-60